<?xml version="1.0" encoding="UTF-8" standalone="no" ?>
<gpx xmlns="http://www.topografix.com/GPX/1/1" xmlns:xsi="http://www.w3.org/2001/XMLSchema-instance" xsi:schemaLocation="http://www.topografix.com/GPX/1/1 http://www.topografix.com/GPX/1/1/gpx.xsd" version="1.1" creator="VisuGPX - https://www.visugpx.com">
  <metadata>
    <name>Reze_Autour_8-19km</name>
    <desc><![CDATA[gnerando idor:5792578_5792726_5814453_5825877_6470772_8005623_8320604_9624624__]]></desc>
  </metadata>
  <trk>
    <name><![CDATA[Reze_IslesDeLoire_8.5km-9624624]]></name>
    <extensions>
      <line xmlns="http://www.topografix.com/GPX/gpx_style/0/2">
        <color>FF0000</color>
        <width>4</width>
      </line>
    </extensions>
    <trkseg>
      <trkpt lat="47.19524" lon="-1.58229">
        <ele>4</ele>
        <time>2023-11-11T18:52:40Z</time>
      </trkpt>
      <trkpt lat="47.19515" lon="-1.58256">
        <ele>5</ele>
        <time>2023-11-11T18:53:07Z</time>
      </trkpt>
      <trkpt lat="47.19488" lon="-1.58243">
        <ele>6</ele>
        <time>2023-11-11T18:53:45Z</time>
      </trkpt>
      <trkpt lat="47.19508" lon="-1.58221">
        <ele>5</ele>
        <time>2023-11-11T18:54:19Z</time>
      </trkpt>
      <trkpt lat="47.19509" lon="-1.58199">
        <ele>5</ele>
        <time>2023-11-11T18:54:38Z</time>
      </trkpt>
      <trkpt lat="47.1949" lon="-1.58187">
        <ele>6</ele>
        <time>2023-11-11T18:55:06Z</time>
      </trkpt>
      <trkpt lat="47.19486" lon="-1.58196">
        <ele>6</ele>
        <time>2023-11-11T18:55:16Z</time>
      </trkpt>
      <trkpt lat="47.1948" lon="-1.58199">
        <ele>6</ele>
        <time>2023-11-11T18:55:24Z</time>
      </trkpt>
      <trkpt lat="47.19477" lon="-1.58213">
        <ele>6</ele>
        <time>2023-11-11T18:55:38Z</time>
      </trkpt>
      <trkpt lat="47.19463" lon="-1.58206">
        <ele>6</ele>
        <time>2023-11-11T18:55:57Z</time>
      </trkpt>
      <trkpt lat="47.19456" lon="-1.58221">
        <ele>6</ele>
        <time>2023-11-11T18:56:14Z</time>
      </trkpt>
      <trkpt lat="47.19416" lon="-1.58204">
        <ele>6</ele>
        <time>2023-11-11T18:57:09Z</time>
      </trkpt>
      <trkpt lat="47.19408" lon="-1.58202">
        <ele>6</ele>
        <time>2023-11-11T18:57:20Z</time>
      </trkpt>
      <trkpt lat="47.19403" lon="-1.58228">
        <ele>6</ele>
        <time>2023-11-11T18:57:45Z</time>
      </trkpt>
      <trkpt lat="47.19433" lon="-1.58253">
        <ele>7</ele>
        <time>2023-11-11T18:58:31Z</time>
      </trkpt>
      <trkpt lat="47.19438" lon="-1.58257">
        <ele>7</ele>
        <time>2023-11-11T18:58:38Z</time>
      </trkpt>
      <trkpt lat="47.19432" lon="-1.58262">
        <ele>7</ele>
        <time>2023-11-11T18:58:48Z</time>
      </trkpt>
      <trkpt lat="47.19426" lon="-1.58266">
        <ele>7</ele>
        <time>2023-11-11T18:58:56Z</time>
      </trkpt>
      <trkpt lat="47.19418" lon="-1.58283">
        <ele>7</ele>
        <time>2023-11-11T18:59:15Z</time>
      </trkpt>
      <trkpt lat="47.19402" lon="-1.58273">
        <ele>7</ele>
        <time>2023-11-11T18:59:38Z</time>
      </trkpt>
      <trkpt lat="47.1939" lon="-1.58268">
        <ele>7</ele>
        <time>2023-11-11T18:59:55Z</time>
      </trkpt>
      <trkpt lat="47.19381" lon="-1.58296">
        <ele>7</ele>
        <time>2023-11-11T19:00:23Z</time>
      </trkpt>
      <trkpt lat="47.19382" lon="-1.58303">
        <ele>7</ele>
        <time>2023-11-11T19:00:29Z</time>
      </trkpt>
      <trkpt lat="47.19375" lon="-1.58332">
        <ele>7</ele>
        <time>2023-11-11T19:00:57Z</time>
      </trkpt>
      <trkpt lat="47.19373" lon="-1.58339">
        <ele>7</ele>
        <time>2023-11-11T19:01:04Z</time>
      </trkpt>
      <trkpt lat="47.19349" lon="-1.58327">
        <ele>6</ele>
        <time>2023-11-11T19:01:38Z</time>
      </trkpt>
      <trkpt lat="47.19347" lon="-1.58368">
        <ele>6</ele>
        <time>2023-11-11T19:02:15Z</time>
      </trkpt>
      <trkpt lat="47.19369" lon="-1.58379">
        <ele>6</ele>
        <time>2023-11-11T19:02:46Z</time>
      </trkpt>
      <trkpt lat="47.19394" lon="-1.58388">
        <ele>6</ele>
        <time>2023-11-11T19:03:21Z</time>
      </trkpt>
      <trkpt lat="47.19395" lon="-1.58363">
        <ele>6</ele>
        <time>2023-11-11T19:03:43Z</time>
      </trkpt>
      <trkpt lat="47.194" lon="-1.58363">
        <ele>6</ele>
        <time>2023-11-11T19:03:50Z</time>
      </trkpt>
      <trkpt lat="47.19408" lon="-1.58365">
        <ele>6</ele>
        <time>2023-11-11T19:04:01Z</time>
      </trkpt>
      <trkpt lat="47.19411" lon="-1.58341">
        <ele>8</ele>
        <time>2023-11-11T19:04:23Z</time>
      </trkpt>
      <trkpt lat="47.19436" lon="-1.58339">
        <ele>6</ele>
        <time>2023-11-11T19:04:56Z</time>
      </trkpt>
      <trkpt lat="47.19465" lon="-1.58357">
        <ele>3</ele>
        <time>2023-11-11T19:05:38Z</time>
      </trkpt>
      <trkpt lat="47.19444" lon="-1.58407">
        <ele>3</ele>
        <time>2023-11-11T19:06:32Z</time>
      </trkpt>
      <trkpt lat="47.19433" lon="-1.58429">
        <ele>3</ele>
        <time>2023-11-11T19:06:57Z</time>
      </trkpt>
      <trkpt lat="47.19412" lon="-1.58448">
        <ele>4</ele>
        <time>2023-11-11T19:07:29Z</time>
      </trkpt>
      <trkpt lat="47.19404" lon="-1.5846">
        <ele>4</ele>
        <time>2023-11-11T19:07:45Z</time>
      </trkpt>
      <trkpt lat="47.194" lon="-1.58472">
        <ele>4</ele>
        <time>2023-11-11T19:07:57Z</time>
      </trkpt>
      <trkpt lat="47.19395" lon="-1.58485">
        <ele>4</ele>
        <time>2023-11-11T19:08:10Z</time>
      </trkpt>
      <trkpt lat="47.19387" lon="-1.58504">
        <ele>4</ele>
        <time>2023-11-11T19:08:31Z</time>
      </trkpt>
      <trkpt lat="47.19379" lon="-1.58522">
        <ele>4</ele>
        <time>2023-11-11T19:08:50Z</time>
      </trkpt>
      <trkpt lat="47.19369" lon="-1.5854">
        <ele>4</ele>
        <time>2023-11-11T19:09:11Z</time>
      </trkpt>
      <trkpt lat="47.194" lon="-1.5847">
        <ele>4</ele>
        <time>2023-11-11T19:10:27Z</time>
      </trkpt>
      <trkpt lat="47.19383" lon="-1.58452">
        <ele>4</ele>
        <time>2023-11-11T19:10:55Z</time>
      </trkpt>
      <trkpt lat="47.19378" lon="-1.58449">
        <ele>5</ele>
        <time>2023-11-11T19:11:02Z</time>
      </trkpt>
      <trkpt lat="47.1937" lon="-1.58442">
        <ele>5</ele>
        <time>2023-11-11T19:11:15Z</time>
      </trkpt>
      <trkpt lat="47.19355" lon="-1.58426">
        <ele>5</ele>
        <time>2023-11-11T19:11:39Z</time>
      </trkpt>
      <trkpt lat="47.19349" lon="-1.58416">
        <ele>6</ele>
        <time>2023-11-11T19:11:51Z</time>
      </trkpt>
      <trkpt lat="47.19343" lon="-1.58412">
        <ele>6</ele>
        <time>2023-11-11T19:12:00Z</time>
      </trkpt>
      <trkpt lat="47.19318" lon="-1.58388">
        <ele>6</ele>
        <time>2023-11-11T19:12:40Z</time>
      </trkpt>
      <trkpt lat="47.19305" lon="-1.58372">
        <ele>6</ele>
        <time>2023-11-11T19:13:03Z</time>
      </trkpt>
      <trkpt lat="47.19275" lon="-1.58346">
        <ele>6</ele>
        <time>2023-11-11T19:13:49Z</time>
      </trkpt>
      <trkpt lat="47.19275" lon="-1.58339">
        <ele>6</ele>
        <time>2023-11-11T19:13:55Z</time>
      </trkpt>
      <trkpt lat="47.19278" lon="-1.58328">
        <ele>6</ele>
        <time>2023-11-11T19:14:06Z</time>
      </trkpt>
      <trkpt lat="47.19245" lon="-1.58254">
        <ele>6</ele>
        <time>2023-11-11T19:15:26Z</time>
      </trkpt>
      <trkpt lat="47.19263" lon="-1.58232">
        <ele>6</ele>
        <time>2023-11-11T19:15:58Z</time>
      </trkpt>
      <trkpt lat="47.19242" lon="-1.58183">
        <ele>6</ele>
        <time>2023-11-11T19:16:50Z</time>
      </trkpt>
      <trkpt lat="47.19332" lon="-1.58262">
        <ele>7</ele>
        <time>2023-11-11T19:19:10Z</time>
      </trkpt>
      <trkpt lat="47.19374" lon="-1.58144">
        <ele>5</ele>
        <time>2023-11-11T19:21:11Z</time>
      </trkpt>
      <trkpt lat="47.19334" lon="-1.58107">
        <ele>4</ele>
        <time>2023-11-11T19:22:14Z</time>
      </trkpt>
      <trkpt lat="47.19347" lon="-1.58063">
        <ele>4</ele>
        <time>2023-11-11T19:22:57Z</time>
      </trkpt>
      <trkpt lat="47.19357" lon="-1.57996">
        <ele>5</ele>
        <time>2023-11-11T19:24:00Z</time>
      </trkpt>
      <trkpt lat="47.19328" lon="-1.57965">
        <ele>5</ele>
        <time>2023-11-11T19:24:47Z</time>
      </trkpt>
      <trkpt lat="47.19326" lon="-1.57919">
        <ele>5</ele>
        <time>2023-11-11T19:25:29Z</time>
      </trkpt>
      <trkpt lat="47.19351" lon="-1.57862">
        <ele>5</ele>
        <time>2023-11-11T19:26:31Z</time>
      </trkpt>
      <trkpt lat="47.19366" lon="-1.57857">
        <ele>5</ele>
        <time>2023-11-11T19:26:51Z</time>
      </trkpt>
      <trkpt lat="47.19378" lon="-1.57815">
        <ele>5</ele>
        <time>2023-11-11T19:27:33Z</time>
      </trkpt>
      <trkpt lat="47.19419" lon="-1.57753">
        <ele>5</ele>
        <time>2023-11-11T19:28:51Z</time>
      </trkpt>
      <trkpt lat="47.19486" lon="-1.57603">
        <ele>6</ele>
        <time>2023-11-11T19:31:34Z</time>
      </trkpt>
      <trkpt lat="47.19513" lon="-1.57492">
        <ele>5</ele>
        <time>2023-11-11T19:33:21Z</time>
      </trkpt>
      <trkpt lat="47.19465" lon="-1.57465">
        <ele>6</ele>
        <time>2023-11-11T19:34:29Z</time>
      </trkpt>
      <trkpt lat="47.19392" lon="-1.57445">
        <ele>8</ele>
        <time>2023-11-11T19:36:08Z</time>
      </trkpt>
      <trkpt lat="47.19411" lon="-1.57372">
        <ele>7</ele>
        <time>2023-11-11T19:37:19Z</time>
      </trkpt>
      <trkpt lat="47.19406" lon="-1.57338">
        <ele>6</ele>
        <time>2023-11-11T19:37:51Z</time>
      </trkpt>
      <trkpt lat="47.19426" lon="-1.57294">
        <ele>8</ele>
        <time>2023-11-11T19:38:39Z</time>
      </trkpt>
      <trkpt lat="47.19445" lon="-1.57207">
        <ele>9</ele>
        <time>2023-11-11T19:40:02Z</time>
      </trkpt>
      <trkpt lat="47.19444" lon="-1.57182">
        <ele>9</ele>
        <time>2023-11-11T19:40:24Z</time>
      </trkpt>
      <trkpt lat="47.1942" lon="-1.57177">
        <ele>9</ele>
        <time>2023-11-11T19:40:57Z</time>
      </trkpt>
      <trkpt lat="47.19421" lon="-1.57117">
        <ele>7</ele>
        <time>2023-11-11T19:41:51Z</time>
      </trkpt>
      <trkpt lat="47.19401" lon="-1.57105">
        <ele>7</ele>
        <time>2023-11-11T19:42:20Z</time>
      </trkpt>
      <trkpt lat="47.19352" lon="-1.57093">
        <ele>8</ele>
        <time>2023-11-11T19:43:26Z</time>
      </trkpt>
      <trkpt lat="47.19343" lon="-1.57113">
        <ele>9</ele>
        <time>2023-11-11T19:43:48Z</time>
      </trkpt>
      <trkpt lat="47.19335" lon="-1.57099">
        <ele>8</ele>
        <time>2023-11-11T19:44:05Z</time>
      </trkpt>
      <trkpt lat="47.1933" lon="-1.5708">
        <ele>8</ele>
        <time>2023-11-11T19:44:23Z</time>
      </trkpt>
      <trkpt lat="47.19315" lon="-1.57093">
        <ele>8</ele>
        <time>2023-11-11T19:44:46Z</time>
      </trkpt>
      <trkpt lat="47.19288" lon="-1.57076">
        <ele>6</ele>
        <time>2023-11-11T19:45:25Z</time>
      </trkpt>
      <trkpt lat="47.19267" lon="-1.57076">
        <ele>6</ele>
        <time>2023-11-11T19:45:54Z</time>
      </trkpt>
      <trkpt lat="47.19258" lon="-1.57084">
        <ele>5</ele>
        <time>2023-11-11T19:46:08Z</time>
      </trkpt>
      <trkpt lat="47.19243" lon="-1.57058">
        <ele>5</ele>
        <time>2023-11-11T19:46:38Z</time>
      </trkpt>
      <trkpt lat="47.19245" lon="-1.57042">
        <ele>5</ele>
        <time>2023-11-11T19:46:53Z</time>
      </trkpt>
      <trkpt lat="47.19192" lon="-1.57035">
        <ele>7</ele>
        <time>2023-11-11T19:48:04Z</time>
      </trkpt>
      <trkpt lat="47.19131" lon="-1.57015">
        <ele>11</ele>
        <time>2023-11-11T19:49:28Z</time>
      </trkpt>
      <trkpt lat="47.19121" lon="-1.57006">
        <ele>12</ele>
        <time>2023-11-11T19:49:43Z</time>
      </trkpt>
      <trkpt lat="47.19121" lon="-1.56997">
        <ele>12</ele>
        <time>2023-11-11T19:49:51Z</time>
      </trkpt>
      <trkpt lat="47.19125" lon="-1.56964">
        <ele>12</ele>
        <time>2023-11-11T19:50:22Z</time>
      </trkpt>
      <trkpt lat="47.19061" lon="-1.56951">
        <ele>15</ele>
        <time>2023-11-11T19:51:48Z</time>
      </trkpt>
      <trkpt lat="47.19051" lon="-1.56945">
        <ele>15</ele>
        <time>2023-11-11T19:52:02Z</time>
      </trkpt>
      <trkpt lat="47.19048" lon="-1.56926">
        <ele>15</ele>
        <time>2023-11-11T19:52:20Z</time>
      </trkpt>
      <trkpt lat="47.19018" lon="-1.56887">
        <ele>16</ele>
        <time>2023-11-11T19:53:14Z</time>
      </trkpt>
      <trkpt lat="47.19003" lon="-1.56864">
        <ele>17</ele>
        <time>2023-11-11T19:53:42Z</time>
      </trkpt>
      <trkpt lat="47.19009" lon="-1.56853">
        <ele>16</ele>
        <time>2023-11-11T19:53:55Z</time>
      </trkpt>
      <trkpt lat="47.19056" lon="-1.56882">
        <ele>15</ele>
        <time>2023-11-11T19:55:03Z</time>
      </trkpt>
      <trkpt lat="47.19095" lon="-1.56914">
        <ele>14</ele>
        <time>2023-11-11T19:56:03Z</time>
      </trkpt>
      <trkpt lat="47.19097" lon="-1.56897">
        <ele>14</ele>
        <time>2023-11-11T19:56:19Z</time>
      </trkpt>
      <trkpt lat="47.19108" lon="-1.56899">
        <ele>13</ele>
        <time>2023-11-11T19:56:33Z</time>
      </trkpt>
      <trkpt lat="47.19135" lon="-1.56896">
        <ele>11</ele>
        <time>2023-11-11T19:57:09Z</time>
      </trkpt>
      <trkpt lat="47.19146" lon="-1.56825">
        <ele>10</ele>
        <time>2023-11-11T19:58:15Z</time>
      </trkpt>
      <trkpt lat="47.1914" lon="-1.56762">
        <ele>10</ele>
        <time>2023-11-11T19:59:13Z</time>
      </trkpt>
      <trkpt lat="47.19144" lon="-1.56733">
        <ele>10</ele>
        <time>2023-11-11T19:59:40Z</time>
      </trkpt>
      <trkpt lat="47.19153" lon="-1.56635">
        <ele>9</ele>
        <time>2023-11-11T20:01:10Z</time>
      </trkpt>
      <trkpt lat="47.19161" lon="-1.56595">
        <ele>8</ele>
        <time>2023-11-11T20:01:47Z</time>
      </trkpt>
      <trkpt lat="47.19192" lon="-1.56595">
        <ele>7</ele>
        <time>2023-11-11T20:02:29Z</time>
      </trkpt>
      <trkpt lat="47.1919" lon="-1.56564">
        <ele>7</ele>
        <time>2023-11-11T20:02:57Z</time>
      </trkpt>
      <trkpt lat="47.19192" lon="-1.56518">
        <ele>7</ele>
        <time>2023-11-11T20:03:39Z</time>
      </trkpt>
      <trkpt lat="47.19198" lon="-1.56489">
        <ele>7</ele>
        <time>2023-11-11T20:04:06Z</time>
      </trkpt>
      <trkpt lat="47.19202" lon="-1.56458">
        <ele>8</ele>
        <time>2023-11-11T20:04:35Z</time>
      </trkpt>
      <trkpt lat="47.19205" lon="-1.56414">
        <ele>9</ele>
        <time>2023-11-11T20:05:15Z</time>
      </trkpt>
      <trkpt lat="47.19213" lon="-1.56377">
        <ele>8</ele>
        <time>2023-11-11T20:05:50Z</time>
      </trkpt>
      <trkpt lat="47.19216" lon="-1.56345">
        <ele>8</ele>
        <time>2023-11-11T20:06:20Z</time>
      </trkpt>
      <trkpt lat="47.19211" lon="-1.56291">
        <ele>8</ele>
        <time>2023-11-11T20:07:09Z</time>
      </trkpt>
      <trkpt lat="47.19216" lon="-1.56236">
        <ele>8</ele>
        <time>2023-11-11T20:07:59Z</time>
      </trkpt>
      <trkpt lat="47.19225" lon="-1.562">
        <ele>8</ele>
        <time>2023-11-11T20:08:34Z</time>
      </trkpt>
      <trkpt lat="47.19231" lon="-1.56178">
        <ele>8</ele>
        <time>2023-11-11T20:08:56Z</time>
      </trkpt>
      <trkpt lat="47.19235" lon="-1.56167">
        <ele>8</ele>
        <time>2023-11-11T20:09:07Z</time>
      </trkpt>
      <trkpt lat="47.19229" lon="-1.56032">
        <ele>10</ele>
        <time>2023-11-11T20:11:10Z</time>
      </trkpt>
      <trkpt lat="47.19221" lon="-1.55952">
        <ele>10</ele>
        <time>2023-11-11T20:12:23Z</time>
      </trkpt>
      <trkpt lat="47.19208" lon="-1.5586">
        <ele>9</ele>
        <time>2023-11-11T20:13:48Z</time>
      </trkpt>
      <trkpt lat="47.19205" lon="-1.55786">
        <ele>9</ele>
        <time>2023-11-11T20:14:55Z</time>
      </trkpt>
      <trkpt lat="47.19211" lon="-1.55742">
        <ele>8</ele>
        <time>2023-11-11T20:15:36Z</time>
      </trkpt>
      <trkpt lat="47.19204" lon="-1.5572">
        <ele>8</ele>
        <time>2023-11-11T20:15:58Z</time>
      </trkpt>
      <trkpt lat="47.19202" lon="-1.55662">
        <ele>7</ele>
        <time>2023-11-11T20:16:51Z</time>
      </trkpt>
      <trkpt lat="47.19205" lon="-1.55593">
        <ele>6</ele>
        <time>2023-11-11T20:17:53Z</time>
      </trkpt>
      <trkpt lat="47.19211" lon="-1.55545">
        <ele>6</ele>
        <time>2023-11-11T20:18:38Z</time>
      </trkpt>
      <trkpt lat="47.19212" lon="-1.555">
        <ele>6</ele>
        <time>2023-11-11T20:19:19Z</time>
      </trkpt>
      <trkpt lat="47.19211" lon="-1.55471">
        <ele>6</ele>
        <time>2023-11-11T20:19:45Z</time>
      </trkpt>
      <trkpt lat="47.19206" lon="-1.55439">
        <ele>6</ele>
        <time>2023-11-11T20:20:15Z</time>
      </trkpt>
      <trkpt lat="47.19216" lon="-1.55416">
        <ele>6</ele>
        <time>2023-11-11T20:20:39Z</time>
      </trkpt>
      <trkpt lat="47.19213" lon="-1.55398">
        <ele>7</ele>
        <time>2023-11-11T20:20:56Z</time>
      </trkpt>
      <trkpt lat="47.19232" lon="-1.55392">
        <ele>7</ele>
        <time>2023-11-11T20:21:22Z</time>
      </trkpt>
      <trkpt lat="47.19234" lon="-1.55374">
        <ele>7</ele>
        <time>2023-11-11T20:21:39Z</time>
      </trkpt>
      <trkpt lat="47.19256" lon="-1.55267">
        <ele>8</ele>
        <time>2023-11-11T20:23:20Z</time>
      </trkpt>
      <trkpt lat="47.19264" lon="-1.55223">
        <ele>7</ele>
        <time>2023-11-11T20:24:01Z</time>
      </trkpt>
      <trkpt lat="47.19261" lon="-1.55189">
        <ele>7</ele>
        <time>2023-11-11T20:24:32Z</time>
      </trkpt>
      <trkpt lat="47.19271" lon="-1.55172">
        <ele>6</ele>
        <time>2023-11-11T20:24:53Z</time>
      </trkpt>
      <trkpt lat="47.19281" lon="-1.55156">
        <ele>6</ele>
        <time>2023-11-11T20:25:13Z</time>
      </trkpt>
      <trkpt lat="47.19303" lon="-1.5506">
        <ele>7</ele>
        <time>2023-11-11T20:26:44Z</time>
      </trkpt>
      <trkpt lat="47.19308" lon="-1.55017">
        <ele>8</ele>
        <time>2023-11-11T20:27:24Z</time>
      </trkpt>
      <trkpt lat="47.19293" lon="-1.55003">
        <ele>8</ele>
        <time>2023-11-11T20:27:48Z</time>
      </trkpt>
      <trkpt lat="47.19261" lon="-1.55014">
        <ele>6</ele>
        <time>2023-11-11T20:28:32Z</time>
      </trkpt>
      <trkpt lat="47.19237" lon="-1.55012">
        <ele>7</ele>
        <time>2023-11-11T20:29:04Z</time>
      </trkpt>
      <trkpt lat="47.19198" lon="-1.55032">
        <ele>8</ele>
        <time>2023-11-11T20:29:59Z</time>
      </trkpt>
      <trkpt lat="47.1916" lon="-1.55062">
        <ele>10</ele>
        <time>2023-11-11T20:30:56Z</time>
      </trkpt>
      <trkpt lat="47.19134" lon="-1.55078">
        <ele>11</ele>
        <time>2023-11-11T20:31:34Z</time>
      </trkpt>
      <trkpt lat="47.19111" lon="-1.5511">
        <ele>11</ele>
        <time>2023-11-11T20:32:16Z</time>
      </trkpt>
      <trkpt lat="47.19101" lon="-1.55084">
        <ele>12</ele>
        <time>2023-11-11T20:32:43Z</time>
      </trkpt>
      <trkpt lat="47.19099" lon="-1.5507">
        <ele>13</ele>
        <time>2023-11-11T20:32:56Z</time>
      </trkpt>
      <trkpt lat="47.19121" lon="-1.55042">
        <ele>12</ele>
        <time>2023-11-11T20:33:35Z</time>
      </trkpt>
      <trkpt lat="47.19178" lon="-1.54948">
        <ele>11</ele>
        <time>2023-11-11T20:35:29Z</time>
      </trkpt>
      <trkpt lat="47.19198" lon="-1.5492">
        <ele>10</ele>
        <time>2023-11-11T20:36:06Z</time>
      </trkpt>
      <trkpt lat="47.19226" lon="-1.54917">
        <ele>8</ele>
        <time>2023-11-11T20:36:44Z</time>
      </trkpt>
      <trkpt lat="47.19266" lon="-1.5491">
        <ele>7</ele>
        <time>2023-11-11T20:37:37Z</time>
      </trkpt>
      <trkpt lat="47.19278" lon="-1.54892">
        <ele>7</ele>
        <time>2023-11-11T20:38:00Z</time>
      </trkpt>
      <trkpt lat="47.19297" lon="-1.54884">
        <ele>8</ele>
        <time>2023-11-11T20:38:27Z</time>
      </trkpt>
      <trkpt lat="47.19322" lon="-1.54885">
        <ele>9</ele>
        <time>2023-11-11T20:39:00Z</time>
      </trkpt>
      <trkpt lat="47.19344" lon="-1.54921">
        <ele>9</ele>
        <time>2023-11-11T20:39:44Z</time>
      </trkpt>
      <trkpt lat="47.19348" lon="-1.54922">
        <ele>9</ele>
        <time>2023-11-11T20:39:49Z</time>
      </trkpt>
      <trkpt lat="47.19395" lon="-1.54922">
        <ele>8</ele>
        <time>2023-11-11T20:40:52Z</time>
      </trkpt>
      <trkpt lat="47.19448" lon="-1.54924">
        <ele>7</ele>
        <time>2023-11-11T20:42:03Z</time>
      </trkpt>
      <trkpt lat="47.19484" lon="-1.54924">
        <ele>7</ele>
        <time>2023-11-11T20:42:51Z</time>
      </trkpt>
      <trkpt lat="47.19508" lon="-1.54921">
        <ele>7</ele>
        <time>2023-11-11T20:43:23Z</time>
      </trkpt>
      <trkpt lat="47.19531" lon="-1.54921">
        <ele>7</ele>
        <time>2023-11-11T20:43:54Z</time>
      </trkpt>
      <trkpt lat="47.19548" lon="-1.54917">
        <ele>7</ele>
        <time>2023-11-11T20:44:17Z</time>
      </trkpt>
      <trkpt lat="47.19548" lon="-1.54936">
        <ele>7</ele>
        <time>2023-11-11T20:44:34Z</time>
      </trkpt>
      <trkpt lat="47.19551" lon="-1.54976">
        <ele>7</ele>
        <time>2023-11-11T20:45:10Z</time>
      </trkpt>
      <trkpt lat="47.19585" lon="-1.54989">
        <ele>7</ele>
        <time>2023-11-11T20:45:57Z</time>
      </trkpt>
      <trkpt lat="47.19639" lon="-1.54986">
        <ele>7</ele>
        <time>2023-11-11T20:47:09Z</time>
      </trkpt>
      <trkpt lat="47.19675" lon="-1.54989">
        <ele>7</ele>
        <time>2023-11-11T20:47:57Z</time>
      </trkpt>
      <trkpt lat="47.19671" lon="-1.55028">
        <ele>7</ele>
        <time>2023-11-11T20:48:33Z</time>
      </trkpt>
      <trkpt lat="47.19674" lon="-1.55097">
        <ele>5</ele>
        <time>2023-11-11T20:49:36Z</time>
      </trkpt>
      <trkpt lat="47.19678" lon="-1.5511">
        <ele>5</ele>
        <time>2023-11-11T20:49:49Z</time>
      </trkpt>
      <trkpt lat="47.19683" lon="-1.55133">
        <ele>4</ele>
        <time>2023-11-11T20:50:11Z</time>
      </trkpt>
      <trkpt lat="47.19682" lon="-1.55161">
        <ele>3</ele>
        <time>2023-11-11T20:50:36Z</time>
      </trkpt>
      <trkpt lat="47.19681" lon="-1.55181">
        <ele>3</ele>
        <time>2023-11-11T20:50:54Z</time>
      </trkpt>
      <trkpt lat="47.19683" lon="-1.55199">
        <ele>3</ele>
        <time>2023-11-11T20:51:11Z</time>
      </trkpt>
      <trkpt lat="47.19681" lon="-1.55231">
        <ele>3</ele>
        <time>2023-11-11T20:51:40Z</time>
      </trkpt>
      <trkpt lat="47.19667" lon="-1.55265">
        <ele>3</ele>
        <time>2023-11-11T20:52:16Z</time>
      </trkpt>
      <trkpt lat="47.19659" lon="-1.5531">
        <ele>3</ele>
        <time>2023-11-11T20:52:58Z</time>
      </trkpt>
      <trkpt lat="47.19662" lon="-1.55338">
        <ele>3</ele>
        <time>2023-11-11T20:53:24Z</time>
      </trkpt>
      <trkpt lat="47.1966" lon="-1.55371">
        <ele>3</ele>
        <time>2023-11-11T20:53:54Z</time>
      </trkpt>
      <trkpt lat="47.19662" lon="-1.55396">
        <ele>3</ele>
        <time>2023-11-11T20:54:17Z</time>
      </trkpt>
      <trkpt lat="47.19669" lon="-1.55443">
        <ele>2</ele>
        <time>2023-11-11T20:55:00Z</time>
      </trkpt>
      <trkpt lat="47.19674" lon="-1.55498">
        <ele>2</ele>
        <time>2023-11-11T20:55:51Z</time>
      </trkpt>
      <trkpt lat="47.19662" lon="-1.55523">
        <ele>3</ele>
        <time>2023-11-11T20:56:18Z</time>
      </trkpt>
      <trkpt lat="47.19674" lon="-1.55531">
        <ele>3</ele>
        <time>2023-11-11T20:56:36Z</time>
      </trkpt>
      <trkpt lat="47.19672" lon="-1.55553">
        <ele>3</ele>
        <time>2023-11-11T20:56:56Z</time>
      </trkpt>
      <trkpt lat="47.19669" lon="-1.55577">
        <ele>4</ele>
        <time>2023-11-11T20:57:18Z</time>
      </trkpt>
      <trkpt lat="47.19666" lon="-1.55613">
        <ele>4</ele>
        <time>2023-11-11T20:57:51Z</time>
      </trkpt>
      <trkpt lat="47.19667" lon="-1.55619">
        <ele>4</ele>
        <time>2023-11-11T20:57:57Z</time>
      </trkpt>
      <trkpt lat="47.19644" lon="-1.55619">
        <ele>4</ele>
        <time>2023-11-11T20:58:27Z</time>
      </trkpt>
      <trkpt lat="47.19618" lon="-1.55617">
        <ele>5</ele>
        <time>2023-11-11T20:59:02Z</time>
      </trkpt>
      <trkpt lat="47.1963" lon="-1.55641">
        <ele>5</ele>
        <time>2023-11-11T20:59:29Z</time>
      </trkpt>
      <trkpt lat="47.19636" lon="-1.55667">
        <ele>5</ele>
        <time>2023-11-11T20:59:54Z</time>
      </trkpt>
      <trkpt lat="47.1965" lon="-1.55727">
        <ele>5</ele>
        <time>2023-11-11T21:00:52Z</time>
      </trkpt>
      <trkpt lat="47.19658" lon="-1.55763">
        <ele>5</ele>
        <time>2023-11-11T21:01:26Z</time>
      </trkpt>
      <trkpt lat="47.19663" lon="-1.55782">
        <ele>5</ele>
        <time>2023-11-11T21:01:44Z</time>
      </trkpt>
      <trkpt lat="47.19681" lon="-1.55783">
        <ele>4</ele>
        <time>2023-11-11T21:02:09Z</time>
      </trkpt>
      <trkpt lat="47.19681" lon="-1.55799">
        <ele>5</ele>
        <time>2023-11-11T21:02:23Z</time>
      </trkpt>
      <trkpt lat="47.19684" lon="-1.5584">
        <ele>5</ele>
        <time>2023-11-11T21:03:00Z</time>
      </trkpt>
      <trkpt lat="47.19685" lon="-1.55859">
        <ele>4</ele>
        <time>2023-11-11T21:03:18Z</time>
      </trkpt>
      <trkpt lat="47.19688" lon="-1.55912">
        <ele>3</ele>
        <time>2023-11-11T21:04:06Z</time>
      </trkpt>
      <trkpt lat="47.19687" lon="-1.55971">
        <ele>3</ele>
        <time>2023-11-11T21:04:59Z</time>
      </trkpt>
      <trkpt lat="47.19684" lon="-1.56095">
        <ele>4</ele>
        <time>2023-11-11T21:06:52Z</time>
      </trkpt>
      <trkpt lat="47.1968" lon="-1.56189">
        <ele>4</ele>
        <time>2023-11-11T21:08:17Z</time>
      </trkpt>
      <trkpt lat="47.19679" lon="-1.56248">
        <ele>3</ele>
        <time>2023-11-11T21:09:11Z</time>
      </trkpt>
      <trkpt lat="47.19661" lon="-1.56246">
        <ele>3</ele>
        <time>2023-11-11T21:09:35Z</time>
      </trkpt>
      <trkpt lat="47.19635" lon="-1.5625">
        <ele>4</ele>
        <time>2023-11-11T21:10:10Z</time>
      </trkpt>
      <trkpt lat="47.19629" lon="-1.56276">
        <ele>4</ele>
        <time>2023-11-11T21:10:35Z</time>
      </trkpt>
      <trkpt lat="47.19628" lon="-1.56341">
        <ele>6</ele>
        <time>2023-11-11T21:11:34Z</time>
      </trkpt>
      <trkpt lat="47.19625" lon="-1.56427">
        <ele>7</ele>
        <time>2023-11-11T21:12:52Z</time>
      </trkpt>
      <trkpt lat="47.19632" lon="-1.56535">
        <ele>6</ele>
        <time>2023-11-11T21:14:30Z</time>
      </trkpt>
      <trkpt lat="47.19623" lon="-1.56646">
        <ele>5</ele>
        <time>2023-11-11T21:16:12Z</time>
      </trkpt>
      <trkpt lat="47.19614" lon="-1.56801">
        <ele>5</ele>
        <time>2023-11-11T21:18:33Z</time>
      </trkpt>
      <trkpt lat="47.19615" lon="-1.56813">
        <ele>5</ele>
        <time>2023-11-11T21:18:44Z</time>
      </trkpt>
      <trkpt lat="47.19606" lon="-1.56967">
        <ele>6</ele>
        <time>2023-11-11T21:21:04Z</time>
      </trkpt>
      <trkpt lat="47.19593" lon="-1.57127">
        <ele>7</ele>
        <time>2023-11-11T21:23:30Z</time>
      </trkpt>
      <trkpt lat="47.19592" lon="-1.5721">
        <ele>7</ele>
        <time>2023-11-11T21:24:45Z</time>
      </trkpt>
      <trkpt lat="47.19628" lon="-1.57227">
        <ele>7</ele>
        <time>2023-11-11T21:25:36Z</time>
      </trkpt>
      <trkpt lat="47.19671" lon="-1.57235">
        <ele>6</ele>
        <time>2023-11-11T21:26:33Z</time>
      </trkpt>
      <trkpt lat="47.19664" lon="-1.5731">
        <ele>5</ele>
        <time>2023-11-11T21:27:42Z</time>
      </trkpt>
      <trkpt lat="47.19661" lon="-1.57351">
        <ele>4</ele>
        <time>2023-11-11T21:28:19Z</time>
      </trkpt>
      <trkpt lat="47.19659" lon="-1.57415">
        <ele>4</ele>
        <time>2023-11-11T21:29:18Z</time>
      </trkpt>
      <trkpt lat="47.19636" lon="-1.57508">
        <ele>5</ele>
        <time>2023-11-11T21:30:47Z</time>
      </trkpt>
      <trkpt lat="47.19632" lon="-1.57594">
        <ele>3</ele>
        <time>2023-11-11T21:32:05Z</time>
      </trkpt>
      <trkpt lat="47.19606" lon="-1.57659">
        <ele>5</ele>
        <time>2023-11-11T21:33:14Z</time>
      </trkpt>
      <trkpt lat="47.19591" lon="-1.57736">
        <ele>6</ele>
        <time>2023-11-11T21:34:26Z</time>
      </trkpt>
      <trkpt lat="47.19571" lon="-1.57769">
        <ele>6</ele>
        <time>2023-11-11T21:35:07Z</time>
      </trkpt>
      <trkpt lat="47.19546" lon="-1.57759">
        <ele>6</ele>
        <time>2023-11-11T21:35:41Z</time>
      </trkpt>
      <trkpt lat="47.19528" lon="-1.57829">
        <ele>5</ele>
        <time>2023-11-11T21:36:49Z</time>
      </trkpt>
      <trkpt lat="47.19521" lon="-1.57825">
        <ele>5</ele>
        <time>2023-11-11T21:36:59Z</time>
      </trkpt>
      <trkpt lat="47.19479" lon="-1.57813">
        <ele>5</ele>
        <time>2023-11-11T21:37:56Z</time>
      </trkpt>
      <trkpt lat="47.19476" lon="-1.57862">
        <ele>5</ele>
        <time>2023-11-11T21:38:41Z</time>
      </trkpt>
      <trkpt lat="47.19493" lon="-1.57926">
        <ele>3</ele>
        <time>2023-11-11T21:39:43Z</time>
      </trkpt>
      <trkpt lat="47.19506" lon="-1.57993">
        <ele>4</ele>
        <time>2023-11-11T21:40:46Z</time>
      </trkpt>
      <trkpt lat="47.19521" lon="-1.58044">
        <ele>3</ele>
        <time>2023-11-11T21:41:37Z</time>
      </trkpt>
      <trkpt lat="47.19526" lon="-1.58082">
        <ele>3</ele>
        <time>2023-11-11T21:42:12Z</time>
      </trkpt>
      <trkpt lat="47.19524" lon="-1.58146">
        <ele>4</ele>
        <time>2023-11-11T21:43:10Z</time>
      </trkpt>
      <trkpt lat="47.19524" lon="-1.5822">
        <ele>4</ele>
        <time>2023-11-11T21:44:17Z</time>
      </trkpt>
    </trkseg>
  </trk>
</gpx>